sensor_id;sensor_type;location;lat;lon;timestamp;P1;durP1;ratioP1;P2;durP2;ratioP2
76636;SDS011;65532;52.124;5.480;2023-02-20T00:01:38;8.52;;;3.55;;
76636;SDS011;65532;52.124;5.480;2023-02-20T00:04:05;8.98;;;4.15;;
76636;SDS011;65532;52.124;5.480;2023-02-20T00:06:31;8.57;;;4.40;;
76636;SDS011;65532;52.124;5.480;2023-02-20T00:08:58;7.20;;;2.90;;
76636;SDS011;65532;52.124;5.480;2023-02-20T00:11:24;10.80;;;3.42;;
76636;SDS011;65532;52.124;5.480;2023-02-20T00:13:50;6.60;;;4.15;;
76636;SDS011;65532;52.124;5.480;2023-02-20T00:16:17;10.60;;;4.10;;
76636;SDS011;65532;52.124;5.480;2023-02-20T00:18:44;13.30;;;4.43;;
76636;SDS011;65532;52.124;5.480;2023-02-20T00:21:10;8.82;;;4.15;;
76636;SDS011;65532;52.124;5.480;2023-02-20T00:23:37;7.15;;;2.92;;
76636;SDS011;65532;52.124;5.480;2023-02-20T00:26:07;10.50;;;3.25;;
76636;SDS011;65532;52.124;5.480;2023-02-20T00:31:03;7.38;;;3.88;;
76636;SDS011;65532;52.124;5.480;2023-02-20T00:33:31;8.98;;;4.40;;
76636;SDS011;65532;52.124;5.480;2023-02-20T00:35:58;11.20;;;6.50;;
76636;SDS011;65532;52.124;5.480;2023-02-20T00:38:24;11.35;;;5.88;;
76636;SDS011;65532;52.124;5.480;2023-02-20T00:40:52;8.35;;;3.80;;
76636;SDS011;65532;52.124;5.480;2023-02-20T00:43:18;12.73;;;3.92;;
76636;SDS011;65532;52.124;5.480;2023-02-20T00:45:45;10.60;;;4.95;;
76636;SDS011;65532;52.124;5.480;2023-02-20T00:48:11;11.00;;;4.20;;
76636;SDS011;65532;52.124;5.480;2023-02-20T00:50:38;13.85;;;5.63;;
76636;SDS011;65532;52.124;5.480;2023-02-20T00:53:04;9.23;;;5.10;;
76636;SDS011;65532;52.124;5.480;2023-02-20T00:55:31;11.93;;;6.10;;
76636;SDS011;65532;52.124;5.480;2023-02-20T00:57:58;15.90;;;6.75;;
76636;SDS011;65532;52.124;5.480;2023-02-20T01:00:25;13.05;;;6.13;;
76636;SDS011;65532;52.124;5.480;2023-02-20T01:02:54;11.43;;;4.88;;
76636;SDS011;65532;52.124;5.480;2023-02-20T01:05:21;10.57;;;4.68;;
76636;SDS011;65532;52.124;5.480;2023-02-20T01:07:48;14.63;;;5.38;;
76636;SDS011;65532;52.124;5.480;2023-02-20T01:10:16;11.90;;;6.32;;
76636;SDS011;65532;52.124;5.480;2023-02-20T01:12:42;19.05;;;7.10;;
76636;SDS011;65532;52.124;5.480;2023-02-20T01:15:12;15.93;;;6.88;;
76636;SDS011;65532;52.124;5.480;2023-02-20T01:17:39;11.05;;;5.32;;
76636;SDS011;65532;52.124;5.480;2023-02-20T01:20:06;12.98;;;6.15;;
76636;SDS011;65532;52.124;5.480;2023-02-20T01:22:33;11.82;;;5.30;;
76636;SDS011;65532;52.124;5.480;2023-02-20T01:25:00;10.90;;;4.95;;
76636;SDS011;65532;52.124;5.480;2023-02-20T01:27:26;12.32;;;6.32;;
76636;SDS011;65532;52.124;5.480;2023-02-20T01:29:53;14.68;;;6.00;;
76636;SDS011;65532;52.124;5.480;2023-02-20T01:32:19;11.27;;;5.32;;
76636;SDS011;65532;52.124;5.480;2023-02-20T01:34:46;14.48;;;6.15;;
76636;SDS011;65532;52.124;5.480;2023-02-20T01:37:13;14.95;;;5.25;;
76636;SDS011;65532;52.124;5.480;2023-02-20T01:39:40;11.60;;;4.88;;
76636;SDS011;65532;52.124;5.480;2023-02-20T01:42:09;14.35;;;7.32;;
76636;SDS011;65532;52.124;5.480;2023-02-20T01:44:42;11.57;;;7.15;;
76636;SDS011;65532;52.124;5.480;2023-02-20T01:47:16;8.80;;;4.65;;
76636;SDS011;65532;52.124;5.480;2023-02-20T01:54:54;8.20;;;3.72;;
76636;SDS011;65532;52.124;5.480;2023-02-20T01:57:29;7.20;;;4.03;;
76636;SDS011;65532;52.124;5.480;2023-02-20T01:59:59;16.17;;;6.03;;
76636;SDS011;65532;52.124;5.480;2023-02-20T02:02:41;12.35;;;5.47;;
76636;SDS011;65532;52.124;5.480;2023-02-20T02:05:11;10.00;;;4.00;;
76636;SDS011;65532;52.124;5.480;2023-02-20T02:07:38;9.60;;;5.32;;
76636;SDS011;65532;52.124;5.480;2023-02-20T02:10:08;11.73;;;5.63;;
76636;SDS011;65532;52.124;5.480;2023-02-20T02:12:36;13.00;;;5.97;;
76636;SDS011;65532;52.124;5.480;2023-02-20T02:15:11;16.63;;;7.28;;
76636;SDS011;65532;52.124;5.480;2023-02-20T02:20:35;9.88;;;4.82;;
76636;SDS011;65532;52.124;5.480;2023-02-20T02:23:13;18.73;;;8.48;;
76636;SDS011;65532;52.124;5.480;2023-02-20T02:29:01;18.85;;;7.32;;
76636;SDS011;65532;52.124;5.480;2023-02-20T02:40:25;14.98;;;6.75;;
76636;SDS011;65532;52.124;5.480;2023-02-20T02:43:00;16.95;;;8.02;;
76636;SDS011;65532;52.124;5.480;2023-02-20T02:45:56;16.38;;;8.38;;
76636;SDS011;65532;52.124;5.480;2023-02-20T02:48:33;17.42;;;7.75;;
76636;SDS011;65532;52.124;5.480;2023-02-20T02:51:20;16.13;;;7.57;;
76636;SDS011;65532;52.124;5.480;2023-02-20T02:54:05;18.67;;;8.60;;
76636;SDS011;65532;52.124;5.480;2023-02-20T02:56:44;13.85;;;8.38;;
76636;SDS011;65532;52.124;5.480;2023-02-20T02:59:14;14.82;;;8.18;;
76636;SDS011;65532;52.124;5.480;2023-02-20T03:01:56;21.70;;;10.35;;
76636;SDS011;65532;52.124;5.480;2023-02-20T03:04:28;18.90;;;9.90;;
76636;SDS011;65532;52.124;5.480;2023-02-20T03:06:58;25.25;;;11.65;;
76636;SDS011;65532;52.124;5.480;2023-02-20T03:09:31;17.88;;;7.50;;
76636;SDS011;65532;52.124;5.480;2023-02-20T03:11:59;19.00;;;6.45;;
76636;SDS011;65532;52.124;5.480;2023-02-20T03:14:37;25.05;;;9.77;;
76636;SDS011;65532;52.124;5.480;2023-02-20T03:17:31;24.88;;;10.13;;
76636;SDS011;65532;52.124;5.480;2023-02-20T03:20:05;21.50;;;7.05;;
76636;SDS011;65532;52.124;5.480;2023-02-20T03:22:45;22.13;;;10.32;;
76636;SDS011;65532;52.124;5.480;2023-02-20T03:25:21;21.55;;;9.18;;
76636;SDS011;65532;52.124;5.480;2023-02-20T03:30:25;17.60;;;9.05;;
76636;SDS011;65532;52.124;5.480;2023-02-20T03:36:15;20.08;;;8.20;;
76636;SDS011;65532;52.124;5.480;2023-02-20T03:39:07;22.60;;;9.65;;
76636;SDS011;65532;52.124;5.480;2023-02-20T03:41:58;18.83;;;8.27;;
76636;SDS011;65532;52.124;5.480;2023-02-20T03:44:49;24.75;;;9.77;;
76636;SDS011;65532;52.124;5.480;2023-02-20T03:47:17;17.33;;;7.32;;
76636;SDS011;65532;52.124;5.480;2023-02-20T03:49:47;18.42;;;9.27;;
76636;SDS011;65532;52.124;5.480;2023-02-20T03:52:15;21.13;;;9.25;;
76636;SDS011;65532;52.124;5.480;2023-02-20T03:54:43;16.15;;;7.38;;
76636;SDS011;65532;52.124;5.480;2023-02-20T03:57:14;24.40;;;10.35;;
76636;SDS011;65532;52.124;5.480;2023-02-20T03:59:49;18.83;;;8.75;;
76636;SDS011;65532;52.124;5.480;2023-02-20T04:02:21;19.75;;;7.63;;
76636;SDS011;65532;52.124;5.480;2023-02-20T04:04:51;20.08;;;7.20;;
76636;SDS011;65532;52.124;5.480;2023-02-20T04:07:23;19.88;;;10.02;;
76636;SDS011;65532;52.124;5.480;2023-02-20T04:09:56;15.52;;;6.43;;
76636;SDS011;65532;52.124;5.480;2023-02-20T04:12:31;17.60;;;7.38;;
76636;SDS011;65532;52.124;5.480;2023-02-20T04:15:02;24.48;;;10.45;;
76636;SDS011;65532;52.124;5.480;2023-02-20T04:17:34;16.58;;;7.93;;
76636;SDS011;65532;52.124;5.480;2023-02-20T04:20:07;21.30;;;8.50;;
76636;SDS011;65532;52.124;5.480;2023-02-20T04:22:41;21.17;;;10.57;;
76636;SDS011;65532;52.124;5.480;2023-02-20T04:25:12;17.75;;;9.30;;
76636;SDS011;65532;52.124;5.480;2023-02-20T04:27:40;17.48;;;9.20;;
76636;SDS011;65532;52.124;5.480;2023-02-20T04:30:07;23.80;;;9.77;;
76636;SDS011;65532;52.124;5.480;2023-02-20T04:32:35;22.50;;;9.68;;
76636;SDS011;65532;52.124;5.480;2023-02-20T04:35:02;17.67;;;8.13;;
76636;SDS011;65532;52.124;5.480;2023-02-20T04:37:29;17.63;;;8.45;;
76636;SDS011;65532;52.124;5.480;2023-02-20T04:39:56;19.50;;;8.48;;
76636;SDS011;65532;52.124;5.480;2023-02-20T04:42:23;20.73;;;7.90;;
76636;SDS011;65532;52.124;5.480;2023-02-20T04:44:49;24.00;;;9.50;;
76636;SDS011;65532;52.124;5.480;2023-02-20T04:47:17;22.65;;;8.27;;
76636;SDS011;65532;52.124;5.480;2023-02-20T04:49:44;19.45;;;8.00;;
76636;SDS011;65532;52.124;5.480;2023-02-20T04:52:15;23.85;;;10.57;;
76636;SDS011;65532;52.124;5.480;2023-02-20T04:54:42;19.60;;;9.20;;
76636;SDS011;65532;52.124;5.480;2023-02-20T04:57:10;25.92;;;9.68;;
76636;SDS011;65532;52.124;5.480;2023-02-20T04:59:37;31.70;;;9.85;;
76636;SDS011;65532;52.124;5.480;2023-02-20T05:02:04;25.98;;;10.05;;
76636;SDS011;65532;52.124;5.480;2023-02-20T05:04:30;25.73;;;10.30;;
76636;SDS011;65532;52.124;5.480;2023-02-20T05:06:57;24.15;;;9.93;;
76636;SDS011;65532;52.124;5.480;2023-02-20T05:09:23;34.97;;;11.23;;
76636;SDS011;65532;52.124;5.480;2023-02-20T05:11:50;18.70;;;7.97;;
76636;SDS011;65532;52.124;5.480;2023-02-20T05:14:17;22.90;;;9.13;;
76636;SDS011;65532;52.124;5.480;2023-02-20T05:16:43;18.80;;;7.70;;
76636;SDS011;65532;52.124;5.480;2023-02-20T05:19:11;23.88;;;9.20;;
76636;SDS011;65532;52.124;5.480;2023-02-20T05:21:45;23.17;;;9.75;;
76636;SDS011;65532;52.124;5.480;2023-02-20T05:24:31;19.08;;;8.90;;
76636;SDS011;65532;52.124;5.480;2023-02-20T05:26:57;20.27;;;9.45;;
76636;SDS011;65532;52.124;5.480;2023-02-20T05:29:24;21.95;;;9.80;;
76636;SDS011;65532;52.124;5.480;2023-02-20T05:31:50;17.92;;;8.90;;
76636;SDS011;65532;52.124;5.480;2023-02-20T05:34:17;22.38;;;8.40;;
76636;SDS011;65532;52.124;5.480;2023-02-20T05:36:46;21.77;;;8.95;;
76636;SDS011;65532;52.124;5.480;2023-02-20T05:39:12;15.15;;;5.90;;
76636;SDS011;65532;52.124;5.480;2023-02-20T05:41:39;19.73;;;7.93;;
76636;SDS011;65532;52.124;5.480;2023-02-20T05:44:05;20.10;;;9.45;;
76636;SDS011;65532;52.124;5.480;2023-02-20T05:46:37;21.38;;;9.35;;
76636;SDS011;65532;52.124;5.480;2023-02-20T05:49:05;19.65;;;8.07;;
76636;SDS011;65532;52.124;5.480;2023-02-20T05:51:31;20.85;;;8.52;;
76636;SDS011;65532;52.124;5.480;2023-02-20T05:53:59;18.13;;;8.48;;
76636;SDS011;65532;52.124;5.480;2023-02-20T05:56:26;17.60;;;6.30;;
76636;SDS011;65532;52.124;5.480;2023-02-20T05:58:52;24.20;;;10.73;;
76636;SDS011;65532;52.124;5.480;2023-02-20T06:01:20;23.05;;;6.90;;
76636;SDS011;65532;52.124;5.480;2023-02-20T06:03:48;17.55;;;7.55;;
76636;SDS011;65532;52.124;5.480;2023-02-20T06:06:15;16.13;;;8.02;;
76636;SDS011;65532;52.124;5.480;2023-02-20T06:08:42;16.35;;;7.10;;
76636;SDS011;65532;52.124;5.480;2023-02-20T06:11:10;10.70;;;6.15;;
76636;SDS011;65532;52.124;5.480;2023-02-20T06:13:38;19.35;;;9.02;;
76636;SDS011;65532;52.124;5.480;2023-02-20T06:16:06;19.05;;;6.20;;
76636;SDS011;65532;52.124;5.480;2023-02-20T06:18:33;17.20;;;5.72;;
76636;SDS011;65532;52.124;5.480;2023-02-20T06:21:05;15.57;;;5.07;;
76636;SDS011;65532;52.124;5.480;2023-02-20T06:23:33;24.10;;;6.40;;
76636;SDS011;65532;52.124;5.480;2023-02-20T06:25:59;14.32;;;6.28;;
76636;SDS011;65532;52.124;5.480;2023-02-20T06:28:26;14.90;;;5.45;;
76636;SDS011;65532;52.124;5.480;2023-02-20T06:30:52;9.75;;;4.07;;
76636;SDS011;65532;52.124;5.480;2023-02-20T06:33:19;14.43;;;4.72;;
76636;SDS011;65532;52.124;5.480;2023-02-20T06:35:45;13.48;;;4.32;;
76636;SDS011;65532;52.124;5.480;2023-02-20T06:38:12;11.32;;;4.50;;
76636;SDS011;65532;52.124;5.480;2023-02-20T06:40:38;12.10;;;5.55;;
76636;SDS011;65532;52.124;5.480;2023-02-20T06:43:04;15.70;;;7.03;;
76636;SDS011;65532;52.124;5.480;2023-02-20T06:45:31;8.35;;;3.80;;
76636;SDS011;65532;52.124;5.480;2023-02-20T06:47:57;8.40;;;3.67;;
76636;SDS011;65532;52.124;5.480;2023-02-20T06:50:24;12.25;;;4.82;;
76636;SDS011;65532;52.124;5.480;2023-02-20T06:52:50;15.70;;;4.38;;
76636;SDS011;65532;52.124;5.480;2023-02-20T06:55:17;12.73;;;4.57;;
76636;SDS011;65532;52.124;5.480;2023-02-20T06:57:43;13.88;;;5.30;;
76636;SDS011;65532;52.124;5.480;2023-02-20T07:00:10;16.05;;;6.40;;
76636;SDS011;65532;52.124;5.480;2023-02-20T07:02:37;8.77;;;5.75;;
76636;SDS011;65532;52.124;5.480;2023-02-20T07:05:03;10.27;;;4.53;;
76636;SDS011;65532;52.124;5.480;2023-02-20T07:07:30;20.60;;;5.50;;
76636;SDS011;65532;52.124;5.480;2023-02-20T07:09:57;14.05;;;5.80;;
76636;SDS011;65532;52.124;5.480;2023-02-20T07:12:30;13.70;;;4.70;;
76636;SDS011;65532;52.124;5.480;2023-02-20T07:14:57;14.20;;;5.63;;
76636;SDS011;65532;52.124;5.480;2023-02-20T07:17:24;17.13;;;4.45;;
76636;SDS011;65532;52.124;5.480;2023-02-20T07:19:51;12.73;;;3.97;;
76636;SDS011;65532;52.124;5.480;2023-02-20T07:22:17;8.07;;;3.83;;
76636;SDS011;65532;52.124;5.480;2023-02-20T07:24:48;12.40;;;4.38;;
76636;SDS011;65532;52.124;5.480;2023-02-20T07:27:15;10.32;;;3.83;;
76636;SDS011;65532;52.124;5.480;2023-02-20T07:29:43;11.48;;;3.85;;
76636;SDS011;65532;52.124;5.480;2023-02-20T07:32:11;15.18;;;3.60;;
76636;SDS011;65532;52.124;5.480;2023-02-20T07:34:38;13.25;;;4.63;;
76636;SDS011;65532;52.124;5.480;2023-02-20T07:37:06;11.07;;;3.58;;
76636;SDS011;65532;52.124;5.480;2023-02-20T07:39:32;12.88;;;3.38;;
76636;SDS011;65532;52.124;5.480;2023-02-20T07:41:58;12.77;;;4.05;;
76636;SDS011;65532;52.124;5.480;2023-02-20T07:44:43;12.75;;;4.05;;
76636;SDS011;65532;52.124;5.480;2023-02-20T07:47:14;11.60;;;3.63;;
76636;SDS011;65532;52.124;5.480;2023-02-20T07:49:40;12.43;;;4.85;;
76636;SDS011;65532;52.124;5.480;2023-02-20T07:52:07;15.60;;;3.15;;
76636;SDS011;65532;52.124;5.480;2023-02-20T07:54:33;13.27;;;4.05;;
76636;SDS011;65532;52.124;5.480;2023-02-20T07:57:00;13.00;;;3.90;;
76636;SDS011;65532;52.124;5.480;2023-02-20T07:59:26;18.08;;;5.95;;
76636;SDS011;65532;52.124;5.480;2023-02-20T08:01:53;8.25;;;3.63;;
76636;SDS011;65532;52.124;5.480;2023-02-20T08:04:19;13.82;;;5.43;;
76636;SDS011;65532;52.124;5.480;2023-02-20T08:06:46;12.48;;;3.40;;
76636;SDS011;65532;52.124;5.480;2023-02-20T08:09:12;10.88;;;3.80;;
76636;SDS011;65532;52.124;5.480;2023-02-20T08:11:39;14.00;;;5.03;;
76636;SDS011;65532;52.124;5.480;2023-02-20T08:14:05;9.68;;;3.60;;
76636;SDS011;65532;52.124;5.480;2023-02-20T08:16:32;9.00;;;4.07;;
76636;SDS011;65532;52.124;5.480;2023-02-20T08:18:59;5.95;;;2.05;;
76636;SDS011;65532;52.124;5.480;2023-02-20T08:21:26;13.23;;;4.90;;
76636;SDS011;65532;52.124;5.480;2023-02-20T08:23:53;14.15;;;5.60;;
76636;SDS011;65532;52.124;5.480;2023-02-20T08:26:20;11.75;;;4.15;;
76636;SDS011;65532;52.124;5.480;2023-02-20T08:28:47;9.75;;;4.32;;
76636;SDS011;65532;52.124;5.480;2023-02-20T08:31:14;12.02;;;3.80;;
76636;SDS011;65532;52.124;5.480;2023-02-20T08:33:56;11.27;;;4.03;;
76636;SDS011;65532;52.124;5.480;2023-02-20T08:36:23;11.05;;;3.55;;
76636;SDS011;65532;52.124;5.480;2023-02-20T08:38:49;9.07;;;4.70;;
76636;SDS011;65532;52.124;5.480;2023-02-20T08:41:16;14.05;;;4.32;;
76636;SDS011;65532;52.124;5.480;2023-02-20T08:43:42;13.02;;;3.22;;
76636;SDS011;65532;52.124;5.480;2023-02-20T08:46:09;15.20;;;3.90;;
76636;SDS011;65532;52.124;5.480;2023-02-20T08:48:37;9.48;;;4.38;;
76636;SDS011;65532;52.124;5.480;2023-02-20T08:51:04;5.55;;;2.53;;
76636;SDS011;65532;52.124;5.480;2023-02-20T08:53:32;8.95;;;3.50;;
76636;SDS011;65532;52.124;5.480;2023-02-20T08:55:59;12.57;;;5.03;;
76636;SDS011;65532;52.124;5.480;2023-02-20T08:58:26;11.13;;;4.38;;
76636;SDS011;65532;52.124;5.480;2023-02-20T09:00:52;14.20;;;3.92;;
76636;SDS011;65532;52.124;5.480;2023-02-20T09:03:19;13.68;;;4.28;;
76636;SDS011;65532;52.124;5.480;2023-02-20T09:05:46;7.88;;;4.90;;
76636;SDS011;65532;52.124;5.480;2023-02-20T09:08:13;9.82;;;3.50;;
76636;SDS011;65532;52.124;5.480;2023-02-20T09:10:40;12.15;;;4.95;;
76636;SDS011;65532;52.124;5.480;2023-02-20T09:13:07;8.80;;;4.53;;
76636;SDS011;65532;52.124;5.480;2023-02-20T09:15:33;13.52;;;4.18;;
76636;SDS011;65532;52.124;5.480;2023-02-20T09:18:05;14.30;;;4.45;;
76636;SDS011;65532;52.124;5.480;2023-02-20T09:20:35;10.27;;;4.53;;
76636;SDS011;65532;52.124;5.480;2023-02-20T09:23:03;10.05;;;4.50;;
76636;SDS011;65532;52.124;5.480;2023-02-20T09:25:30;12.73;;;5.20;;
76636;SDS011;65532;52.124;5.480;2023-02-20T09:27:56;16.25;;;3.92;;
76636;SDS011;65532;52.124;5.480;2023-02-20T09:30:23;18.02;;;6.47;;
76636;SDS011;65532;52.124;5.480;2023-02-20T09:32:50;14.25;;;5.40;;
76636;SDS011;65532;52.124;5.480;2023-02-20T09:35:18;14.52;;;4.43;;
76636;SDS011;65532;52.124;5.480;2023-02-20T09:37:49;15.75;;;5.38;;
76636;SDS011;65532;52.124;5.480;2023-02-20T09:40:16;10.85;;;5.20;;
76636;SDS011;65532;52.124;5.480;2023-02-20T09:45:32;11.07;;;5.97;;
76636;SDS011;65532;52.124;5.480;2023-02-20T09:48:37;11.70;;;4.00;;
76636;SDS011;65532;52.124;5.480;2023-02-20T09:51:07;12.88;;;4.00;;
76636;SDS011;65532;52.124;5.480;2023-02-20T09:56:21;17.60;;;5.82;;
76636;SDS011;65532;52.124;5.480;2023-02-20T10:01:52;12.30;;;5.28;;
76636;SDS011;65532;52.124;5.480;2023-02-20T10:04:39;13.13;;;6.43;;
76636;SDS011;65532;52.124;5.480;2023-02-20T10:09:55;13.30;;;6.47;;
76636;SDS011;65532;52.124;5.480;2023-02-20T10:16:05;14.95;;;6.00;;
76636;SDS011;65532;52.124;5.480;2023-02-20T10:21:43;17.80;;;6.93;;
76636;SDS011;65532;52.124;5.480;2023-02-20T10:24:33;12.98;;;7.43;;
76636;SDS011;65532;52.124;5.480;2023-02-20T10:27:40;10.18;;;4.70;;
76636;SDS011;65532;52.124;5.480;2023-02-20T10:35:21;12.75;;;5.20;;
76636;SDS011;65532;52.124;5.480;2023-02-20T10:37:55;10.60;;;4.32;;
76636;SDS011;65532;52.124;5.480;2023-02-20T10:40:25;10.48;;;3.63;;
76636;SDS011;65532;52.124;5.480;2023-02-20T10:48:29;7.10;;;3.30;;
76636;SDS011;65532;52.124;5.480;2023-02-20T10:53:54;8.82;;;3.72;;
76636;SDS011;65532;52.124;5.480;2023-02-20T11:01:44;10.32;;;3.85;;
76636;SDS011;65532;52.124;5.480;2023-02-20T11:04:16;11.25;;;4.50;;
76636;SDS011;65532;52.124;5.480;2023-02-20T11:07:00;11.25;;;4.85;;
76636;SDS011;65532;52.124;5.480;2023-02-20T11:09:29;5.25;;;3.20;;
76636;SDS011;65532;52.124;5.480;2023-02-20T11:11:56;9.35;;;3.30;;
76636;SDS011;65532;52.124;5.480;2023-02-20T11:19:47;18.80;;;6.30;;
76636;SDS011;65532;52.124;5.480;2023-02-20T11:22:16;11.60;;;5.35;;
76636;SDS011;65532;52.124;5.480;2023-02-20T11:25:12;11.10;;;5.82;;
76636;SDS011;65532;52.124;5.480;2023-02-20T11:27:47;11.48;;;4.70;;
76636;SDS011;65532;52.124;5.480;2023-02-20T11:33:13;15.38;;;6.82;;
76636;SDS011;65532;52.124;5.480;2023-02-20T11:35:43;10.45;;;6.43;;
76636;SDS011;65532;52.124;5.480;2023-02-20T11:40:45;11.63;;;5.88;;
76636;SDS011;65532;52.124;5.480;2023-02-20T11:46:22;13.00;;;6.15;;
76636;SDS011;65532;52.124;5.480;2023-02-20T11:54:24;12.35;;;6.60;;
76636;SDS011;65532;52.124;5.480;2023-02-20T11:59:41;17.13;;;8.45;;
76636;SDS011;65532;52.124;5.480;2023-02-20T12:09:49;11.80;;;6.53;;
76636;SDS011;65532;52.124;5.480;2023-02-20T12:12:18;13.93;;;6.95;;
76636;SDS011;65532;52.124;5.480;2023-02-20T12:17:28;9.68;;;5.13;;
76636;SDS011;65532;52.124;5.480;2023-02-20T12:20:07;14.40;;;6.93;;
76636;SDS011;65532;52.124;5.480;2023-02-20T12:25:37;13.43;;;7.85;;
76636;SDS011;65532;52.124;5.480;2023-02-20T12:28:17;13.00;;;6.85;;
76636;SDS011;65532;52.124;5.480;2023-02-20T12:45:02;14.93;;;7.80;;
76636;SDS011;65532;52.124;5.480;2023-02-20T12:47:36;11.77;;;6.40;;
76636;SDS011;65532;52.124;5.480;2023-02-20T12:50:17;15.18;;;6.50;;
76636;SDS011;65532;52.124;5.480;2023-02-20T12:53:19;15.00;;;8.02;;
76636;SDS011;65532;52.124;5.480;2023-02-20T12:58:28;16.45;;;7.18;;
76636;SDS011;65532;52.124;5.480;2023-02-20T13:01:08;12.75;;;5.93;;
76636;SDS011;65532;52.124;5.480;2023-02-20T13:03:48;14.32;;;6.93;;
76636;SDS011;65532;52.124;5.480;2023-02-20T13:06:29;18.15;;;8.02;;
76636;SDS011;65532;52.124;5.480;2023-02-20T13:09:10;18.60;;;7.22;;
76636;SDS011;65532;52.124;5.480;2023-02-20T13:11:46;14.60;;;7.25;;
76636;SDS011;65532;52.124;5.480;2023-02-20T13:14:18;18.92;;;8.80;;
76636;SDS011;65532;52.124;5.480;2023-02-20T13:19:29;14.23;;;6.57;;
76636;SDS011;65532;52.124;5.480;2023-02-20T13:22:08;15.63;;;6.78;;
76636;SDS011;65532;52.124;5.480;2023-02-20T13:24:37;10.52;;;5.03;;
76636;SDS011;65532;52.124;5.480;2023-02-20T13:27:09;11.45;;;4.75;;
76636;SDS011;65532;52.124;5.480;2023-02-20T13:29:59;15.82;;;7.10;;
76636;SDS011;65532;52.124;5.480;2023-02-20T13:32:28;12.40;;;6.72;;
76636;SDS011;65532;52.124;5.480;2023-02-20T13:38:14;8.52;;;5.78;;
76636;SDS011;65532;52.124;5.480;2023-02-20T13:40:44;16.17;;;7.18;;
76636;SDS011;65532;52.124;5.480;2023-02-20T13:43:31;14.27;;;8.13;;
76636;SDS011;65532;52.124;5.480;2023-02-20T14:01:10;10.82;;;6.03;;
76636;SDS011;65532;52.124;5.480;2023-02-20T14:03:37;18.15;;;8.13;;
76636;SDS011;65532;52.124;5.480;2023-02-20T14:06:11;16.42;;;8.02;;
76636;SDS011;65532;52.124;5.480;2023-02-20T14:08:43;18.48;;;7.18;;
76636;SDS011;65532;52.124;5.480;2023-02-20T14:13:59;19.75;;;8.02;;
76636;SDS011;65532;52.124;5.480;2023-02-20T14:16:37;28.20;;;8.75;;
76636;SDS011;65532;52.124;5.480;2023-02-20T14:19:26;14.20;;;7.57;;
76636;SDS011;65532;52.124;5.480;2023-02-20T14:21:56;15.70;;;7.35;;
76636;SDS011;65532;52.124;5.480;2023-02-20T14:24:39;16.45;;;8.90;;
76636;SDS011;65532;52.124;5.480;2023-02-20T14:27:23;18.85;;;9.35;;
76636;SDS011;65532;52.124;5.480;2023-02-20T14:30:06;16.55;;;8.57;;
76636;SDS011;65532;52.124;5.480;2023-02-20T14:32:43;18.42;;;9.45;;
76636;SDS011;65532;52.124;5.480;2023-02-20T14:40:56;18.98;;;7.82;;
76636;SDS011;65532;52.124;5.480;2023-02-20T14:43:25;25.05;;;7.55;;
76636;SDS011;65532;52.124;5.480;2023-02-20T14:46:00;15.32;;;8.10;;
76636;SDS011;65532;52.124;5.480;2023-02-20T14:48:34;17.38;;;8.27;;
76636;SDS011;65532;52.124;5.480;2023-02-20T14:53:41;19.98;;;8.60;;
76636;SDS011;65532;52.124;5.480;2023-02-20T14:56:12;14.10;;;6.72;;
76636;SDS011;65532;52.124;5.480;2023-02-20T14:58:41;19.08;;;9.15;;
76636;SDS011;65532;52.124;5.480;2023-02-20T15:01:18;17.00;;;6.88;;
76636;SDS011;65532;52.124;5.480;2023-02-20T15:04:11;13.98;;;6.97;;
76636;SDS011;65532;52.124;5.480;2023-02-20T15:06:43;12.73;;;5.75;;
76636;SDS011;65532;52.124;5.480;2023-02-20T15:09:11;13.07;;;6.97;;
76636;SDS011;65532;52.124;5.480;2023-02-20T15:11:55;19.73;;;7.05;;
76636;SDS011;65532;52.124;5.480;2023-02-20T15:14:25;16.88;;;9.15;;
76636;SDS011;65532;52.124;5.480;2023-02-20T15:19:46;18.13;;;9.45;;
76636;SDS011;65532;52.124;5.480;2023-02-20T15:22:30;13.07;;;5.97;;
76636;SDS011;65532;52.124;5.480;2023-02-20T15:25:25;14.43;;;7.60;;
76636;SDS011;65532;52.124;5.480;2023-02-20T15:33:37;14.93;;;8.48;;
76636;SDS011;65532;52.124;5.480;2023-02-20T15:36:08;18.63;;;7.68;;
76636;SDS011;65532;52.124;5.480;2023-02-20T15:38:39;17.33;;;9.63;;
76636;SDS011;65532;52.124;5.480;2023-02-20T15:41:06;15.90;;;8.13;;
76636;SDS011;65532;52.124;5.480;2023-02-20T15:43:37;19.55;;;8.38;;
76636;SDS011;65532;52.124;5.480;2023-02-20T15:46:16;16.40;;;7.50;;
76636;SDS011;65532;52.124;5.480;2023-02-20T15:48:44;19.77;;;7.95;;
76636;SDS011;65532;52.124;5.480;2023-02-20T15:51:12;20.30;;;8.02;;
76636;SDS011;65532;52.124;5.480;2023-02-20T15:53:42;15.02;;;7.50;;
76636;SDS011;65532;52.124;5.480;2023-02-20T15:56:11;13.68;;;7.80;;
76636;SDS011;65532;52.124;5.480;2023-02-20T15:58:38;14.98;;;7.75;;
76636;SDS011;65532;52.124;5.480;2023-02-20T16:01:08;20.20;;;7.53;;
76636;SDS011;65532;52.124;5.480;2023-02-20T16:03:35;16.42;;;6.57;;
76636;SDS011;65532;52.124;5.480;2023-02-20T16:06:16;17.95;;;7.53;;
76636;SDS011;65532;52.124;5.480;2023-02-20T16:08:44;16.42;;;6.82;;
76636;SDS011;65532;52.124;5.480;2023-02-20T16:11:12;17.50;;;7.22;;
76636;SDS011;65532;52.124;5.480;2023-02-20T16:13:39;15.77;;;8.27;;
76636;SDS011;65532;52.124;5.480;2023-02-20T16:18:59;18.38;;;7.35;;
76636;SDS011;65532;52.124;5.480;2023-02-20T16:21:27;16.65;;;6.90;;
76636;SDS011;65532;52.124;5.480;2023-02-20T16:23:54;16.42;;;7.85;;
76636;SDS011;65532;52.124;5.480;2023-02-20T16:26:21;15.55;;;7.30;;
76636;SDS011;65532;52.124;5.480;2023-02-20T16:31:20;14.32;;;5.85;;
76636;SDS011;65532;52.124;5.480;2023-02-20T16:33:47;18.00;;;9.00;;
76636;SDS011;65532;52.124;5.480;2023-02-20T16:36:14;17.30;;;8.02;;
76636;SDS011;65532;52.124;5.480;2023-02-20T16:38:50;16.15;;;6.63;;
76636;SDS011;65532;52.124;5.480;2023-02-20T16:41:16;17.10;;;7.78;;
76636;SDS011;65532;52.124;5.480;2023-02-20T16:43:43;17.70;;;8.43;;
76636;SDS011;65532;52.124;5.480;2023-02-20T16:46:09;16.58;;;7.40;;
76636;SDS011;65532;52.124;5.480;2023-02-20T16:48:36;13.65;;;7.18;;
76636;SDS011;65532;52.124;5.480;2023-02-20T16:51:02;17.45;;;9.25;;
76636;SDS011;65532;52.124;5.480;2023-02-20T16:53:31;19.52;;;7.82;;
76636;SDS011;65532;52.124;5.480;2023-02-20T16:55:58;15.68;;;6.70;;
76636;SDS011;65532;52.124;5.480;2023-02-20T16:58:24;18.52;;;8.80;;
76636;SDS011;65532;52.124;5.480;2023-02-20T17:00:51;16.52;;;8.52;;
76636;SDS011;65532;52.124;5.480;2023-02-20T17:03:23;16.23;;;7.95;;
76636;SDS011;65532;52.124;5.480;2023-02-20T17:05:49;14.45;;;8.20;;
76636;SDS011;65532;52.124;5.480;2023-02-20T17:08:23;18.45;;;8.43;;
76636;SDS011;65532;52.124;5.480;2023-02-20T17:10:51;17.35;;;9.70;;
76636;SDS011;65532;52.124;5.480;2023-02-20T17:13:17;17.25;;;7.38;;
76636;SDS011;65532;52.124;5.480;2023-02-20T17:15:44;26.48;;;11.00;;
76636;SDS011;65532;52.124;5.480;2023-02-20T17:18:13;17.20;;;9.50;;
76636;SDS011;65532;52.124;5.480;2023-02-20T17:20:40;18.70;;;9.45;;
76636;SDS011;65532;52.124;5.480;2023-02-20T17:23:07;15.32;;;7.18;;
76636;SDS011;65532;52.124;5.480;2023-02-20T17:25:33;16.33;;;7.78;;
76636;SDS011;65532;52.124;5.480;2023-02-20T17:28:00;19.65;;;7.13;;
76636;SDS011;65532;52.124;5.480;2023-02-20T17:30:27;18.95;;;7.72;;
76636;SDS011;65532;52.124;5.480;2023-02-20T17:32:53;17.00;;;7.00;;
76636;SDS011;65532;52.124;5.480;2023-02-20T17:35:20;15.88;;;7.70;;
76636;SDS011;65532;52.124;5.480;2023-02-20T17:37:46;15.20;;;7.55;;
76636;SDS011;65532;52.124;5.480;2023-02-20T17:40:14;16.55;;;8.18;;